Terminal Aerodrome Forecast
Issued by NWS Shreveport, LA

Home | Current Version | Previous Version | Text Only | Print | Product List | Glossary On
Versions: 1 2 3 4 5 6 7 8 9 10 11 12 13 14 15 16
000
FTUS44 KSHV 301200 AAA
TAFTYR
TAF AMD
KTYR 301257Z 3013/3112 13006KT P6SM SCT025 BKN120 BKN250
      TEMPO 3014/3016 BKN030
     FM301600 15006KT P6SM BKN040
     FM301800 16008KT P6SM SCT045
     FM310600 18007KT P6SM BKN015=

USA.gov is the U.S. government's official web portal to all federal, state and local government web resources and services.